createdAt,value
2022-11-24T00:04:29.782Z,11.43
2022-11-24T00:09:31.495Z,13.23
2022-11-24T00:14:33.591Z,11.93
2022-11-24T00:19:35.492Z,12.35
2022-11-24T00:24:37.208Z,12.40
2022-11-24T00:29:39.175Z,12.80
2022-11-24T00:34:42.046Z,13.10
2022-11-24T00:39:43.742Z,11.25
2022-11-24T00:44:45.433Z,11.93
2022-11-24T00:49:47.151Z,12.38
2022-11-24T00:54:48.926Z,9.98
2022-11-24T00:59:50.652Z,10.43
2022-11-24T01:04:52.356Z,11.25
2022-11-24T01:09:54.077Z,11.05
2022-11-24T01:14:55.848Z,10.85
2022-11-24T01:19:57.539Z,11.48
2022-11-24T01:24:59.302Z,11.25
2022-11-24T01:30:01.092Z,12.82
2022-11-24T01:35:06.911Z,11.82
2022-11-24T01:40:09.442Z,10.73
2022-11-24T01:45:32.393Z,10.30
2022-11-24T01:50:35.900Z,9.32
2022-11-24T01:55:39.794Z,9.75
2022-11-24T02:00:45.320Z,9.95
2022-11-24T02:06:12.263Z,10.60
2022-11-24T02:11:14.245Z,9.20
2022-11-24T02:16:16.048Z,9.00
2022-11-24T02:21:18.334Z,9.45
2022-11-24T02:26:43.057Z,9.32
2022-11-24T02:31:49.853Z,9.05
2022-11-24T02:36:51.543Z,7.05
2022-11-24T02:42:04.973Z,9.27
2022-11-24T02:47:12.335Z,9.77
2022-11-24T02:57:15.813Z,9.85
2022-11-24T03:02:17.596Z,9.32
2022-11-24T03:07:19.472Z,9.32
2022-11-24T03:12:21.236Z,8.38
2022-11-24T03:17:22.969Z,8.95
2022-11-24T03:22:24.686Z,7.70
2022-11-24T03:27:26.731Z,8.27
2022-11-24T03:32:28.503Z,8.52
2022-11-24T03:37:30.564Z,9.18
2022-11-24T03:42:32.308Z,7.55
2022-11-24T03:47:34.160Z,7.63
2022-11-24T03:52:35.898Z,9.20
2022-11-24T03:57:37.614Z,7.78
2022-11-24T04:02:39.408Z,8.48
2022-11-24T04:07:41.245Z,9.55
2022-11-24T04:12:45.854Z,9.23
2022-11-24T04:17:49.120Z,9.70
2022-11-24T04:22:51.909Z,8.75
2022-11-24T04:27:55.286Z,9.50
2022-11-24T04:32:57.375Z,9.65
2022-11-24T04:38:02.976Z,10.65
2022-11-24T04:43:04.828Z,9.93
2022-11-24T04:48:06.549Z,9.25
2022-11-24T04:53:10.214Z,9.68
2022-11-24T04:58:11.876Z,10.38
2022-11-24T05:03:15.554Z,11.55
2022-11-24T05:08:33.998Z,11.45
2022-11-24T05:13:35.742Z,12.00
2022-11-24T05:18:38.052Z,11.57
2022-11-24T05:23:39.813Z,13.43
2022-11-24T05:28:41.583Z,15.75
2022-11-24T05:33:43.336Z,15.93
2022-11-24T05:38:45.090Z,15.00
2022-11-24T05:43:46.713Z,18.38
2022-11-24T05:48:48.601Z,19.35
2022-11-24T05:53:50.299Z,20.10
2022-11-24T05:58:51.918Z,17.63
2022-11-24T06:03:53.502Z,21.73
2022-11-24T06:08:55.127Z,21.02
2022-11-24T06:13:56.961Z,19.75
2022-11-24T06:19:00.026Z,18.67
2022-11-24T06:24:02.464Z,18.80
2022-11-24T06:29:04.308Z,19.52
2022-11-24T06:34:11.584Z,20.10
2022-11-24T06:39:13.209Z,19.70
2022-11-24T06:44:14.831Z,18.95
2022-11-24T06:49:16.494Z,17.70
2022-11-24T06:54:21.449Z,19.05
2022-11-24T06:59:23.078Z,19.02
2022-11-24T07:04:24.711Z,20.15
2022-11-24T07:09:26.319Z,18.33
2022-11-24T07:14:27.927Z,16.35
2022-11-24T07:19:29.630Z,17.50
2022-11-24T07:24:31.409Z,19.08
2022-11-24T07:29:33.209Z,18.63
2022-11-24T07:34:35.075Z,18.05
2022-11-24T07:39:36.935Z,17.65
2022-11-24T07:44:38.660Z,17.38
2022-11-24T07:49:40.290Z,17.92
2022-11-24T07:54:41.884Z,19.42
2022-11-24T07:59:43.500Z,19.60
2022-11-24T08:04:45.307Z,18.75
2022-11-24T08:09:46.982Z,19.55
2022-11-24T08:14:50.404Z,20.67
2022-11-24T08:19:52.015Z,20.77
2022-11-24T08:24:53.892Z,19.55
2022-11-24T08:29:55.562Z,18.83
2022-11-24T08:35:08.557Z,21.50
2022-11-24T08:40:16.132Z,20.08
2022-11-24T08:45:22.463Z,19.83
2022-11-24T08:50:26.065Z,21.38
2022-11-24T08:55:27.711Z,21.23
2022-11-24T09:00:29.351Z,18.85
2022-11-24T09:10:54.750Z,21.42
2022-11-24T09:15:56.446Z,20.00
2022-11-24T09:21:10.150Z,18.80
2022-11-24T09:26:17.605Z,22.83
2022-11-24T09:31:26.113Z,25.58
2022-11-24T09:36:28.543Z,21.42
2022-11-24T09:41:30.126Z,20.73
2022-11-24T09:46:52.526Z,18.02
2022-11-24T09:51:56.455Z,17.83
2022-11-24T09:57:00.747Z,17.17
2022-11-24T10:02:02.681Z,15.70
2022-11-24T10:07:30.135Z,17.40
2022-11-24T10:13:12.209Z,17.58
2022-11-24T10:18:27.806Z,16.48
2022-11-24T10:23:41.420Z,16.17
2022-11-24T10:28:55.302Z,18.30
2022-11-24T10:34:01.953Z,19.45
2022-11-24T10:39:12.608Z,16.67
2022-11-24T10:44:15.444Z,16.05
2022-11-24T10:49:26.950Z,16.20
2022-11-24T10:54:28.976Z,16.38
2022-11-24T10:59:39.336Z,15.65
2022-11-24T11:04:41.209Z,16.13
2022-11-24T11:09:42.823Z,17.00
2022-11-24T11:14:47.615Z,17.40
2022-11-24T11:19:56.974Z,19.95
2022-11-24T11:25:22.832Z,18.60
2022-11-24T11:35:50.154Z,18.98
2022-11-24T11:40:52.252Z,19.10
2022-11-24T11:46:17.790Z,26.13
2022-11-24T11:51:23.904Z,24.20
2022-11-24T11:56:30.321Z,17.63
2022-11-24T12:01:38.456Z,18.52
2022-11-24T12:06:51.818Z,15.98
2022-11-24T12:12:21.189Z,18.75
2022-11-24T12:17:34.790Z,18.85
2022-11-24T12:22:52.805Z,19.45
2022-11-24T12:28:11.422Z,20.63
2022-11-24T12:33:27.968Z,21.75
2022-11-24T12:38:48.162Z,21.33
2022-11-24T12:43:56.490Z,22.88
2022-11-24T12:49:24.298Z,22.98
2022-11-24T12:54:35.328Z,24.40
2022-11-24T12:59:46.657Z,26.90
2022-11-24T13:05:01.923Z,25.05
2022-11-24T13:10:46.904Z,24.90
2022-11-24T13:16:07.088Z,24.92
2022-11-24T13:21:36.614Z,25.08
2022-11-24T13:26:41.491Z,21.63
2022-11-24T13:31:43.689Z,24.35
2022-11-24T13:36:53.625Z,24.05
2022-11-24T13:41:55.194Z,24.02
2022-11-24T13:47:26.782Z,23.45
2022-11-24T13:52:40.502Z,24.05
2022-11-24T13:58:18.447Z,25.92
2022-11-24T14:03:26.407Z,23.30
2022-11-24T14:08:34.965Z,24.60
2022-11-24T14:13:36.976Z,23.33
2022-11-24T14:18:44.028Z,24.48
2022-11-24T14:28:49.655Z,26.67
2022-11-24T14:34:23.461Z,26.23
2022-11-24T14:39:26.723Z,26.60
2022-11-24T14:44:32.223Z,26.40
2022-11-24T14:49:37.590Z,26.80
2022-11-24T14:55:21.252Z,26.33
2022-11-24T15:00:27.719Z,25.42
2022-11-24T15:05:52.866Z,21.47
2022-11-24T15:11:00.407Z,29.33
2022-11-24T15:16:06.538Z,27.92
2022-11-24T15:21:11.793Z,29.15
2022-11-24T15:26:17.335Z,28.88
2022-11-24T15:31:19.008Z,28.30
2022-11-24T15:36:20.814Z,29.92
2022-11-24T15:41:32.337Z,28.15
2022-11-24T15:46:39.730Z,30.73
2022-11-24T15:51:44.732Z,28.63
2022-11-24T15:56:47.131Z,29.85
2022-11-24T16:01:50.569Z,32.15
2022-11-24T16:06:52.302Z,30.52
2022-11-24T16:11:54.098Z,32.60
2022-11-24T16:16:56.133Z,30.42
2022-11-24T16:21:57.890Z,33.92
2022-11-24T16:26:59.629Z,31.42
2022-11-24T16:32:01.417Z,29.67
2022-11-24T16:37:03.164Z,31.30
2022-11-24T16:42:05.145Z,35.75
2022-11-24T16:47:07.102Z,37.00
2022-11-24T16:52:08.892Z,35.85
2022-11-24T16:57:14.976Z,32.92
2022-11-24T17:02:17.232Z,36.22
2022-11-24T17:07:20.657Z,38.80
2022-11-24T17:12:22.532Z,51.35
2022-11-24T17:17:24.199Z,38.80
2022-11-24T17:22:25.895Z,80.82
2022-11-24T17:27:27.612Z,54.17
2022-11-24T17:32:29.469Z,42.42
2022-11-24T17:37:32.187Z,82.05
2022-11-24T17:42:34.342Z,51.65
2022-11-24T17:47:36.084Z,44.20
2022-11-24T17:52:37.719Z,38.90
2022-11-24T17:57:39.466Z,38.58
2022-11-24T18:02:41.341Z,36.15
2022-11-24T18:07:43.261Z,41.78
2022-11-24T18:12:44.927Z,36.03
2022-11-24T18:17:46.725Z,35.90
2022-11-24T18:28:10.120Z,41.53
2022-11-24T18:33:11.792Z,35.72
2022-11-24T18:38:13.572Z,36.72
2022-11-24T18:43:15.392Z,37.22
2022-11-24T18:48:17.059Z,39.40
2022-11-24T18:53:20.908Z,43.05
2022-11-24T18:58:23.298Z,46.70
2022-11-24T19:03:25.073Z,46.60
2022-11-24T19:08:27.107Z,42.50
2022-11-24T19:13:28.880Z,41.92
2022-11-24T19:18:31.163Z,42.67
2022-11-24T19:23:33.060Z,41.45
2022-11-24T19:28:34.846Z,43.33
2022-11-24T19:33:36.816Z,44.20
2022-11-24T19:38:39.488Z,44.28
2022-11-24T19:43:41.847Z,42.60
2022-11-24T19:48:54.628Z,44.65
2022-11-24T19:53:56.762Z,45.50
2022-11-24T19:58:58.775Z,49.63
2022-11-24T20:04:05.864Z,56.03
2022-11-24T20:14:15.468Z,53.45
2022-11-24T20:19:18.548Z,59.83
2022-11-24T20:24:22.535Z,56.72
2022-11-24T20:29:24.368Z,54.47
2022-11-24T20:34:27.321Z,44.15
2022-11-24T20:39:29.272Z,44.78
2022-11-24T20:44:31.450Z,45.72
2022-11-24T20:49:33.257Z,43.88
2022-11-24T20:54:35.256Z,48.22
2022-11-24T20:59:37.032Z,47.75
2022-11-24T21:04:38.774Z,42.67
2022-11-24T21:09:40.508Z,44.33
2022-11-24T21:14:42.329Z,41.95
2022-11-24T21:19:44.118Z,41.20
2022-11-24T21:24:45.845Z,47.10
2022-11-24T21:29:47.552Z,42.92
2022-11-24T21:34:49.520Z,45.22
2022-11-24T21:39:51.181Z,41.17
2022-11-24T21:44:52.862Z,44.63
2022-11-24T21:49:54.959Z,41.92
2022-11-24T21:54:56.726Z,37.75
2022-11-24T21:59:58.478Z,39.25
2022-11-24T22:05:00.144Z,43.42
2022-11-24T22:10:01.837Z,43.85
2022-11-24T22:15:03.667Z,44.88
2022-11-24T22:20:06.071Z,45.13
2022-11-24T22:25:08.192Z,40.03
2022-11-24T22:30:10.618Z,51.50
2022-11-24T22:35:12.318Z,33.40
2022-11-24T22:40:14.019Z,39.53
2022-11-24T22:45:15.787Z,38.88
2022-11-24T22:50:17.560Z,39.20
2022-11-24T22:55:19.341Z,35.85
2022-11-24T23:00:21.100Z,35.88
2022-11-24T23:05:22.777Z,32.92
2022-11-24T23:10:24.436Z,24.48
2022-11-24T23:15:26.108Z,17.63
2022-11-24T23:20:27.751Z,9.75
2022-11-24T23:25:29.620Z,7.85
2022-11-24T23:30:31.256Z,7.13
2022-11-24T23:35:33.072Z,6.50
2022-11-24T23:40:34.775Z,6.20
2022-11-24T23:45:36.568Z,6.07
2022-11-24T23:50:38.195Z,5.15
2022-11-24T23:55:39.877Z,6.22
